Decoded Metar for KTGI ( in ) (IATA:) | Meteo·Mobile Aviation Weather
aviador You're here:

KTGI Decoded Metar

in
Report Time2019-04-23 07:35:00
UTC Time2019-04-23 07:53:59
Flight Rules vfr VFR
Wind260° at 07 kt
W.Decomp.*RWY 20: 3.5 kt HW 6.1 kt RCW
Visibility9999 m
Phenomena:N/A
Clouds:N/A
Expected CloudBase > 1,200 ft AGL from Temp-Dew spread
CeilingNone
Temp16°C
Dew Point13°C (83% RH)
AAT14.4°C
QNH1018 hPa
Raw Report
METAR KTGI 230735Z AUTO 26007KT 10SM CLR 16/13 A3005 RMK AO1=

Extra information for KTGI:More info

Social comments